Time;durP1;ratioP1;P1;durP2;ratioP2;P2;SDS_P1;SDS_P2;PMS_P1;PMS_P2;Temp;Humidity;BMP_temperature;BMP_pressure;BME280_temperature;BME280_humidity;BME280_pressure;Samples;Min_cycle;Max_cycle;Signal;HPM_P1;HPM_P2
2023/04/20 00:00:11;;;;;;;16.53;15.53;;;7.00;69.60;;;;;;5140808;27;20451;-70
2023/04/20 00:02:39;;;;;;;15.50;14.80;;;7.00;69.10;;;;;;5138535;27;20455;-70
2023/04/20 00:05:08;;;;;;;14.90;14.30;;;7.00;68.70;;;;;;5138738;27;20471;-70
2023/04/20 00:07:37;;;;;;;14.90;14.30;;;7.00;68.20;;;;;;5136372;27;20558;-70
2023/04/20 00:10:05;;;;;;;16.10;15.40;;;7.10;68.10;;;;;;5146127;27;20452;-70
2023/04/20 00:12:32;;;;;;;16.00;15.27;;;7.10;67.20;;;;;;5145966;27;20464;-70
2023/04/20 00:14:59;;;;;;;14.83;14.23;;;7.30;67.10;;;;;;5143733;27;20978;-70
2023/04/20 00:17:26;;;;;;;14.70;14.10;;;7.30;66.60;;;;;;5136797;27;20550;-70
2023/04/20 00:19:53;;;;;;;15.40;14.70;;;7.30;66.60;;;;;;5146259;27;20498;-70
2023/04/20 00:22:22;;;;;;;14.90;14.30;;;7.30;66.70;;;;;;5149259;27;20453;-70
2023/04/20 00:24:49;;;;;;;14.63;14.03;;;7.20;67.00;;;;;;5144112;27;20466;-70
2023/04/20 00:27:16;;;;;;;15.03;14.43;;;7.20;67.60;;;;;;5149267;27;20455;-70
2023/04/20 00:29:43;;;;;;;14.77;14.17;;;7.10;67.90;;;;;;5144880;27;20899;-70
2023/04/20 00:32:09;;;;;;;14.43;13.83;;;7.10;67.60;;;;;;5151575;27;20454;-70
2023/04/20 00:34:36;;;;;;;14.80;14.20;;;7.10;68.20;;;;;;5143280;27;20519;-70
2023/04/20 00:37:03;;;;;;;14.63;14.03;;;7.00;69.00;;;;;;5150112;27;20462;-70
2023/04/20 00:39:31;;;;;;;14.60;14.00;;;6.90;69.10;;;;;;5153539;27;20496;-70
2023/04/20 00:42:05;;;;;;;14.27;13.67;;;6.80;69.70;;;;;;5148700;27;20706;-70
2023/04/20 00:44:32;;;;;;;15.60;14.90;;;6.80;70.00;;;;;;5134875;27;20456;-70
2023/04/20 00:46:59;;;;;;;14.70;14.10;;;6.80;69.90;;;;;;5152027;27;20479;-70
2023/04/20 00:49:29;;;;;;;16.23;15.40;;;6.80;70.20;;;;;;5150459;27;20457;-70
2023/04/20 00:51:56;;;;;;;14.80;14.20;;;6.80;70.70;;;;;;5138116;27;20448;-70
2023/04/20 00:54:25;;;;;;;14.70;14.10;;;6.60;71.20;;;;;;5148517;27;20896;-69
2023/04/20 00:56:54;;;;;;;15.17;14.57;;;6.60;72.20;;;;;;5138181;27;20477;-69
2023/04/20 00:59:22;;;;;;;14.93;14.33;;;6.50;72.90;;;;;;5143815;27;20487;-69
2023/04/20 01:01:49;;;;;;;14.40;13.80;;;6.50;73.30;;;;;;5147093;27;20478;-69
2023/04/20 01:04:16;;;;;;;15.07;14.47;;;6.40;73.80;;;;;;5138740;27;20497;-69
2023/04/20 01:06:43;;;;;;;14.60;14.00;;;6.30;75.20;;;;;;5145025;27;20767;-69
2023/04/20 01:09:11;;;;;;;15.40;14.70;;;6.20;77.10;;;;;;5139924;27;20463;-69
2023/04/20 01:11:38;;;;;;;14.40;13.80;;;6.10;78.10;;;;;;5153028;27;20826;-69
2023/04/20 01:14:07;;;;;;;15.33;14.73;;;6.10;78.80;;;;;;5140329;27;20930;-69
2023/04/20 01:16:35;;;;;;;14.80;14.10;;;6.10;79.50;;;;;;5153011;27;20503;-69
2023/04/20 01:19:02;;;;;;;14.40;13.80;;;6.10;79.40;;;;;;5153432;27;20532;-70
2023/04/20 01:21:29;;;;;;;15.00;14.40;;;6.10;79.60;;;;;;5146088;27;20504;-69
2023/04/20 01:23:57;;;;;;;14.60;13.97;;;6.10;79.50;;;;;;5133256;27;20532;-69
2023/04/20 01:26:25;;;;;;;14.90;14.20;;;6.10;79.30;;;;;;5149821;27;20459;-69
2023/04/20 01:28:52;;;;;;;15.43;14.67;;;6.10;79.70;;;;;;5143261;27;20465;-69
2023/04/20 01:31:19;;;;;;;15.37;14.67;;;6.10;80.00;;;;;;5150231;27;20457;-69
2023/04/20 01:33:46;;;;;;;14.90;14.30;;;6.00;80.00;;;;;;5153067;27;20956;-69
2023/04/20 01:36:13;;;;;;;14.70;14.10;;;6.00;81.10;;;;;;5139612;27;20516;-70
2023/04/20 01:38:41;;;;;;;14.47;13.87;;;5.80;82.90;;;;;;5149531;27;20479;-70
2023/04/20 01:41:11;;;;;;;14.60;14.00;;;5.70;85.10;;;;;;5147994;27;20504;-69
2023/04/20 01:43:39;;;;;;;14.03;13.43;;;5.60;86.50;;;;;;5149786;27;20461;-69
2023/04/20 01:46:06;;;;;;;14.40;13.80;;;5.40;88.90;;;;;;5145348;27;21078;-69
2023/04/20 01:48:34;;;;;;;14.00;13.40;;;5.30;90.50;;;;;;5137655;27;20464;-69
2023/04/20 01:51:01;;;;;;;16.73;16.00;;;5.20;91.20;;;;;;5151846;27;20505;-69
2023/04/20 01:53:27;;;;;;;15.40;14.80;;;5.10;91.70;;;;;;5146507;27;20986;-69
2023/04/20 01:55:55;;;;;;;14.70;14.10;;;5.00;92.40;;;;;;5150988;27;20455;-70
2023/04/20 01:58:23;;;;;;;14.80;14.20;;;5.00;92.80;;;;;;5152470;27;20524;-70
2023/04/20 02:00:51;;;;;;;14.60;14.00;;;4.90;92.90;;;;;;5144137;27;20559;-70
2023/04/20 02:03:18;;;;;;;14.33;13.73;;;5.00;92.40;;;;;;5147267;27;20889;-70
2023/04/20 02:05:46;;;;;;;15.00;14.40;;;5.10;92.10;;;;;;5138296;27;20460;-70
2023/04/20 02:08:13;;;;;;;15.30;14.60;;;5.10;91.40;;;;;;5146594;27;20459;-69
2023/04/20 02:10:40;;;;;;;27.27;24.43;;;5.10;91.50;;;;;;5133065;27;20530;-69
2023/04/20 02:13:07;;;;;;;14.80;14.10;;;5.20;90.60;;;;;;5149113;27;20501;-69
2023/04/20 02:15:36;;;;;;;14.47;13.87;;;5.20;90.50;;;;;;5146365;27;20467;-69
2023/04/20 02:18:03;;;;;;;14.20;13.60;;;5.50;90.00;;;;;;5141463;27;20524;-69
2023/04/20 02:20:30;;;;;;;15.43;14.83;;;5.60;88.20;;;;;;5151257;27;20884;-69
2023/04/20 02:22:57;;;;;;;15.00;14.40;;;5.70;87.30;;;;;;5140426;27;20951;-69
2023/04/20 02:25:24;;;;;;;13.97;13.40;;;5.80;87.00;;;;;;5142859;27;20585;-69
2023/04/20 02:27:51;;;;;;;17.00;15.03;;;5.90;85.50;;;;;;5147433;27;20457;-69
2023/04/20 02:30:18;;;;;;;14.47;13.87;;;5.90;86.10;;;;;;5139901;27;20972;-69
2023/04/20 02:32:47;;;;;;;14.10;13.53;;;6.00;85.50;;;;;;5138911;27;20463;-69
2023/04/20 02:35:14;;;;;;;14.77;14.17;;;6.10;85.20;;;;;;5141046;27;20465;-69
2023/04/20 02:37:41;;;;;;;14.70;14.10;;;6.20;85.00;;;;;;5138407;27;20500;-69
2023/04/20 02:40:09;;;;;;;14.80;14.20;;;6.30;84.90;;;;;;5145187;27;20564;-70
2023/04/20 02:42:36;;;;;;;15.07;14.47;;;6.30;85.30;;;;;;5146775;27;20756;-69
2023/04/20 02:45:04;;;;;;;15.20;14.60;;;6.40;85.60;;;;;;5139095;27;20470;-69
2023/04/20 02:47:31;;;;;;;15.23;14.60;;;6.50;85.50;;;;;;5142944;27;20457;-69
2023/04/20 02:50:00;;;;;;;15.20;14.60;;;6.50;84.90;;;;;;5146524;27;20534;-69
2023/04/20 02:52:27;;;;;;;14.13;13.53;;;6.50;85.00;;;;;;5140742;27;20453;-69
2023/04/20 02:54:53;;;;;;;14.50;13.90;;;6.50;85.90;;;;;;5144491;27;20515;-69
2023/04/20 02:57:20;;;;;;;14.63;14.00;;;6.50;86.20;;;;;;5141400;27;20478;-69
2023/04/20 02:59:47;;;;;;;15.60;14.90;;;6.60;86.30;;;;;;5145504;27;20547;-69
2023/04/20 03:02:13;;;;;;;14.60;14.00;;;6.70;85.70;;;;;;5136120;27;20489;-69
2023/04/20 03:04:42;;;;;;;15.17;14.43;;;6.70;87.10;;;;;;5148637;27;20463;-69
2023/04/20 03:07:12;;;;;;;15.03;14.40;;;6.70;86.00;;;;;;5138194;27;20879;-70
2023/04/20 03:09:39;;;;;;;15.13;14.53;;;6.80;85.70;;;;;;5140015;27;20456;-69
2023/04/20 03:12:06;;;;;;;16.20;15.50;;;6.80;85.10;;;;;;5150083;27;20472;-69
2023/04/20 03:14:33;;;;;;;15.40;14.70;;;6.90;85.90;;;;;;5144610;27;20785;-69
2023/04/20 03:17:00;;;;;;;15.67;15.00;;;6.90;85.30;;;;;;5147449;27;20471;-69
2023/04/20 03:19:27;;;;;;;17.57;16.57;;;6.90;85.30;;;;;;5150507;27;20601;-69
2023/04/20 03:21:54;;;;;;;14.83;14.23;;;7.00;84.60;;;;;;5150037;27;20451;-69
2023/04/20 03:24:22;;;;;;;14.60;14.00;;;6.90;85.70;;;;;;5133399;27;20460;-69
2023/04/20 03:26:49;;;;;;;14.70;14.10;;;7.00;85.10;;;;;;5142854;27;20466;-69
2023/04/20 03:29:16;;;;;;;15.37;14.57;;;7.00;83.90;;;;;;5144784;27;20520;-69
2023/04/20 03:31:43;;;;;;;14.83;14.13;;;7.00;84.50;;;;;;5130658;27;20795;-69
2023/04/20 03:34:10;;;;;;;14.50;13.90;;;7.10;84.30;;;;;;5148121;27;20461;-69
2023/04/20 03:36:38;;;;;;;16.53;15.30;;;7.10;84.80;;;;;;5148455;27;20504;-69
2023/04/20 03:39:05;;;;;;;14.80;14.20;;;7.10;83.50;;;;;;5146841;27;20481;-69
2023/04/20 03:41:34;;;;;;;16.63;15.83;;;7.10;84.60;;;;;;5138625;27;20460;-69
2023/04/20 03:44:01;;;;;;;15.87;14.53;;;7.00;84.10;;;;;;5140242;27;21025;-69
2023/04/20 03:46:29;;;;;;;15.30;14.70;;;7.00;84.30;;;;;;5136244;27;20469;-69
2023/04/20 03:48:56;;;;;;;16.80;15.70;;;7.00;85.50;;;;;;5149879;27;21005;-69
2023/04/20 03:51:22;;;;;;;15.60;14.90;;;7.10;85.30;;;;;;5140866;27;20491;-69
2023/04/20 03:53:50;;;;;;;17.20;16.40;;;7.10;87.80;;;;;;5139486;27;20470;-69
2023/04/20 03:56:17;;;;;;;15.77;15.00;;;7.00;87.50;;;;;;5149708;27;20587;-69
2023/04/20 03:58:45;;;;;;;16.20;15.50;;;7.00;89.90;;;;;;5135955;27;20470;-69
2023/04/20 04:01:12;;;;;;;15.53;14.83;;;6.90;90.30;;;;;;5148720;27;20459;-69
2023/04/20 04:03:39;;;;;;;16.40;15.60;;;6.80;90.30;;;;;;5149958;27;20534;-69
2023/04/20 04:06:07;;;;;;;15.83;15.03;;;6.80;90.10;;;;;;5148930;27;20464;-69
2023/04/20 04:08:33;;;;;;;16.10;15.40;;;6.80;91.80;;;;;;5141382;27;20937;-69
2023/04/20 04:11:00;;;;;;;17.77;16.87;;;6.80;93.20;;;;;;5137785;27;20994;-69
2023/04/20 04:13:27;;;;;;;16.20;15.50;;;6.70;95.00;;;;;;5149653;27;20870;-69
2023/04/20 04:15:57;;;;;;;16.20;15.50;;;6.60;95.70;;;;;;5148943;27;20477;-68
2023/04/20 04:18:24;;;;;;;15.83;15.13;;;6.60;97.60;;;;;;5139423;27;20453;-68
2023/04/20 04:20:51;;;;;;;15.90;15.07;;;6.50;97.80;;;;;;5146007;27;20495;-69
2023/04/20 04:23:19;;;;;;;15.47;14.77;;;6.40;98.40;;;;;;5138036;27;20461;-68
2023/04/20 04:25:46;;;;;;;15.87;15.17;;;6.40;97.90;;;;;;5147882;27;20462;-68
2023/04/20 04:28:13;;;;;;;15.70;15.00;;;6.40;99.10;;;;;;5140848;27;20467;-68
2023/04/20 04:30:40;;;;;;;15.57;14.87;;;6.40;99.50;;;;;;5134256;27;20459;-69
2023/04/20 04:33:11;;;;;;;15.50;14.80;;;6.40;99.90;;;;;;5140711;27;20883;-68
2023/04/20 04:35:40;;;;;;;15.67;14.97;;;6.40;99.90;;;;;;5139482;27;20833;-68
2023/04/20 04:38:07;;;;;;;15.03;14.33;;;6.40;99.90;;;;;;5138485;27;20459;-68
2023/04/20 04:40:34;;;;;;;15.73;14.73;;;6.40;99.90;;;;;;5142191;27;20511;-68
2023/04/20 04:43:01;;;;;;;14.20;13.60;;;6.40;99.90;;;;;;5148985;27;20463;-69
2023/04/20 04:45:29;;;;;;;16.10;15.30;;;6.50;99.90;;;;;;5134989;27;20815;-68
2023/04/20 04:47:55;;;;;;;16.67;15.70;;;6.50;99.90;;;;;;5134753;27;20586;-68
2023/04/20 04:50:24;;;;;;;14.40;13.80;;;6.50;99.90;;;;;;5149344;27;20879;-68
2023/04/20 04:52:51;;;;;;;14.63;14.00;;;6.60;99.90;;;;;;5143400;27;20535;-68
2023/04/20 04:55:18;;;;;;;16.23;15.43;;;6.50;99.90;;;;;;5147423;27;20934;-68
2023/04/20 04:57:45;;;;;;;15.90;15.10;;;6.60;99.90;;;;;;5141567;27;20476;-69
2023/04/20 05:00:12;;;;;;;15.50;14.80;;;6.60;99.90;;;;;;5136322;27;20489;-68
2023/04/20 05:02:40;;;;;;;16.00;15.30;;;6.60;99.90;;;;;;5143101;27;20454;-69
2023/04/20 05:05:08;;;;;;;16.13;15.33;;;6.60;99.90;;;;;;5141358;27;21012;-68
2023/04/20 05:07:37;;;;;;;16.03;15.23;;;6.70;99.90;;;;;;5144741;27;20447;-69
2023/04/20 05:10:04;;;;;;;15.70;15.00;;;6.80;99.90;;;;;;5140351;27;20459;-69
2023/04/20 05:12:31;;;;;;;15.17;14.47;;;6.80;99.90;;;;;;5135866;27;21040;-69
2023/04/20 05:14:59;;;;;;;15.80;15.10;;;6.80;99.90;;;;;;5141597;27;20953;-69
2023/04/20 05:17:26;;;;;;;17.03;16.00;;;6.80;99.90;;;;;;5149532;27;20459;-69
2023/04/20 05:19:53;;;;;;;16.10;15.37;;;6.90;99.90;;;;;;5153086;27;20481;-69
2023/04/20 05:22:20;;;;;;;15.70;15.00;;;7.00;99.90;;;;;;5148346;27;20467;-68
2023/04/20 05:24:49;;;;;;;16.00;15.30;;;7.10;99.90;;;;;;5135655;27;20459;-69
2023/04/20 05:27:15;;;;;;;15.63;14.93;;;7.10;99.90;;;;;;5147020;27;20463;-69
2023/04/20 05:29:42;;;;;;;16.27;15.50;;;7.00;99.90;;;;;;5143941;27;20474;-69
2023/04/20 05:32:09;;;;;;;14.57;13.97;;;7.10;99.90;;;;;;5142053;27;20465;-69
2023/04/20 05:34:36;;;;;;;17.07;16.17;;;7.10;99.90;;;;;;5143324;27;20469;-69
2023/04/20 05:37:04;;;;;;;15.40;14.70;;;7.20;99.90;;;;;;5135460;27;20471;-69
2023/04/20 05:39:31;;;;;;;16.10;15.30;;;7.30;99.90;;;;;;5151294;27;21055;-69
2023/04/20 05:42:00;;;;;;;16.20;15.40;;;7.30;99.90;;;;;;5139015;27;20920;-69
2023/04/20 05:44:27;;;;;;;17.50;16.00;;;7.30;99.90;;;;;;5133703;27;20505;-69
2023/04/20 05:46:54;;;;;;;15.50;14.80;;;7.50;99.90;;;;;;5147482;27;20516;-69
2023/04/20 05:49:21;;;;;;;16.50;15.70;;;7.50;99.90;;;;;;5142684;27;20470;-68
2023/04/20 05:51:48;;;;;;;16.00;15.20;;;7.40;99.90;;;;;;5135182;27;20455;-69
2023/04/20 05:54:15;;;;;;;15.77;15.07;;;7.50;99.90;;;;;;5142609;27;20461;-68
2023/04/20 05:56:42;;;;;;;16.07;15.37;;;7.50;99.90;;;;;;5146994;27;20486;-69
2023/04/20 05:59:10;;;;;;;15.60;14.90;;;7.60;99.90;;;;;;5145333;27;20478;-69
2023/04/20 06:01:38;;;;;;;16.60;15.83;;;7.70;99.90;;;;;;5138367;27;20531;-69
2023/04/20 06:04:05;;;;;;;16.17;15.47;;;7.60;99.90;;;;;;5152244;27;20806;-69
2023/04/20 06:06:31;;;;;;;16.10;15.40;;;7.70;99.90;;;;;;5151882;27;20451;-69
2023/04/20 06:08:58;;;;;;;15.40;14.70;;;7.70;99.90;;;;;;5148217;27;20450;-70
2023/04/20 06:11:26;;;;;;;15.87;15.17;;;7.60;99.90;;;;;;5133625;27;20849;-69
2023/04/20 06:13:53;;;;;;;16.40;15.60;;;7.70;99.90;;;;;;5142349;27;20513;-69
2023/04/20 06:16:21;;;;;;;16.90;16.10;;;7.80;99.90;;;;;;5138842;27;20973;-69
2023/04/20 06:18:48;;;;;;;15.30;14.60;;;7.70;99.90;;;;;;5136360;27;20954;-69
2023/04/20 06:21:15;;;;;;;15.50;14.80;;;7.70;99.90;;;;;;5144682;27;20499;-69
2023/04/20 06:23:43;;;;;;;15.77;15.07;;;7.80;99.90;;;;;;5137004;27;20510;-69
2023/04/20 06:26:10;;;;;;;17.77;16.80;;;7.80;99.90;;;;;;5143488;27;20543;-69
2023/04/20 06:28:37;;;;;;;21.03;15.63;;;7.90;99.90;;;;;;5141034;27;20456;-69
2023/04/20 06:31:04;;;;;;;15.37;14.67;;;8.00;99.90;;;;;;5134568;27;20941;-69
2023/04/20 06:33:33;;;;;;;16.37;15.43;;;8.00;99.90;;;;;;5142407;27;20458;-69
2023/04/20 06:36:00;;;;;;;15.30;14.60;;;8.00;99.90;;;;;;5138486;27;20455;-69
2023/04/20 06:38:27;;;;;;;16.57;15.77;;;8.10;99.90;;;;;;5130574;27;20451;-69
2023/04/20 06:40:56;;;;;;;16.93;16.03;;;8.10;99.90;;;;;;5137289;27;20495;-69
2023/04/20 06:43:22;;;;;;;17.03;16.13;;;8.20;99.90;;;;;;5138340;27;20886;-69
2023/04/20 06:45:49;;;;;;;16.30;15.60;;;8.20;99.90;;;;;;5132532;27;21034;-70
2023/04/20 06:48:16;;;;;;;16.60;15.80;;;8.50;99.90;;;;;;5140129;27;20462;-69
2023/04/20 06:50:44;;;;;;;16.77;15.97;;;8.60;99.90;;;;;;5147066;27;20457;-69
2023/04/20 06:53:10;;;;;;;16.87;16.03;;;8.80;99.90;;;;;;5142059;27;20459;-69
2023/04/20 06:55:38;;;;;;;18.60;17.60;;;8.70;99.90;;;;;;5143844;27;20498;-69
2023/04/20 06:58:05;;;;;;;16.10;15.40;;;8.50;99.90;;;;;;5139466;27;20508;-69
2023/04/20 07:00:32;;;;;;;17.60;16.70;;;8.50;99.90;;;;;;5138028;27;21005;-69
2023/04/20 07:02:59;;;;;;;17.77;16.90;;;8.40;99.90;;;;;;5149863;27;20455;-69
2023/04/20 07:05:27;;;;;;;16.27;15.50;;;8.50;99.90;;;;;;5134430;27;20470;-69
2023/04/20 07:07:55;;;;;;;16.03;15.33;;;8.50;99.90;;;;;;5132597;27;20459;-69
2023/04/20 07:10:22;;;;;;;17.57;16.30;;;8.60;99.90;;;;;;5135145;27;20475;-69
2023/04/20 07:12:50;;;;;;;18.20;17.00;;;8.50;99.90;;;;;;5135581;27;20447;-69
2023/04/20 07:15:17;;;;;;;18.37;17.10;;;8.40;99.90;;;;;;5140477;27;20475;-69
2023/04/20 07:17:43;;;;;;;16.60;15.80;;;8.30;99.90;;;;;;5136726;27;20547;-69
2023/04/20 07:20:11;;;;;;;17.27;16.07;;;8.20;99.90;;;;;;5135885;27;20536;-69
2023/04/20 07:22:39;;;;;;;16.03;15.23;;;8.20;99.90;;;;;;5132324;27;20470;-69
2023/04/20 07:25:08;;;;;;;16.77;15.87;;;8.20;99.90;;;;;;5139385;27;20463;-69
2023/04/20 07:27:37;;;;;;;16.13;15.33;;;8.20;99.90;;;;;;5143088;27;20448;-69
2023/04/20 07:30:05;;;;;;;16.80;15.90;;;8.20;99.90;;;;;;5138698;27;20459;-69
2023/04/20 07:32:32;;;;;;;17.57;16.50;;;8.20;99.90;;;;;;5145958;27;20519;-69
2023/04/20 07:34:59;;;;;;;19.90;15.73;;;8.10;99.90;;;;;;5137409;27;20999;-69
2023/04/20 07:37:26;;;;;;;16.50;15.60;;;8.10;99.90;;;;;;5136997;27;20470;-69
2023/04/20 07:39:53;;;;;;;15.17;14.47;;;8.00;99.90;;;;;;5128082;27;20455;-69
2023/04/20 07:42:21;;;;;;;17.93;16.83;;;8.00;99.90;;;;;;5129226;27;20924;-69
2023/04/20 07:44:48;;;;;;;15.30;14.50;;;7.90;99.90;;;;;;5144110;27;20546;-69
2023/04/20 07:47:15;;;;;;;16.13;15.20;;;7.90;99.90;;;;;;5145419;27;20483;-69
2023/04/20 07:49:43;;;;;;;15.70;14.90;;;7.90;99.90;;;;;;5140505;27;20690;-69
2023/04/20 07:52:11;;;;;;;16.50;15.60;;;7.80;99.90;;;;;;5137894;27;20463;-69
2023/04/20 07:54:38;;;;;;;15.83;14.87;;;7.80;99.90;;;;;;5136742;27;20521;-70
2023/04/20 07:57:04;;;;;;;15.93;15.07;;;8.00;99.90;;;;;;5130403;27;20528;-69
2023/04/20 07:59:33;;;;;;;15.83;15.03;;;8.10;99.90;;;;;;5145422;27;21024;-69
2023/04/20 08:02:00;;;;;;;16.87;15.63;;;8.20;99.90;;;;;;5140672;27;20495;-69
2023/04/20 08:04:27;;;;;;;15.50;14.60;;;8.20;99.90;;;;;;5143805;27;20456;-69
2023/04/20 08:06:53;;;;;;;16.57;15.63;;;8.20;99.90;;;;;;5133959;27;20517;-68
2023/04/20 08:09:20;;;;;;;16.83;15.90;;;8.10;99.90;;;;;;5135444;27;20455;-69
2023/04/20 08:11:48;;;;;;;17.40;16.30;;;8.10;99.90;;;;;;5146473;27;20580;-69
2023/04/20 08:14:15;;;;;;;18.83;17.23;;;8.20;99.90;;;;;;5137544;27;20452;-69
2023/04/20 08:16:44;;;;;;;16.70;15.80;;;8.30;99.90;;;;;;5146239;27;21003;-69
2023/04/20 08:19:11;;;;;;;14.77;14.07;;;8.20;99.90;;;;;;5139965;27;20448;-69
2023/04/20 08:21:39;;;;;;;14.47;13.87;;;8.10;99.90;;;;;;5137266;27;20484;-69
2023/04/20 08:24:08;;;;;;;16.60;15.70;;;8.20;99.90;;;;;;5139385;27;20458;-69
2023/04/20 08:26:35;;;;;;;16.20;15.40;;;8.30;99.90;;;;;;5129945;27;20468;-69
2023/04/20 08:29:02;;;;;;;16.87;15.97;;;8.20;99.90;;;;;;5135808;27;21328;-69
2023/04/20 08:31:29;;;;;;;15.80;15.00;;;8.30;99.90;;;;;;5139166;27;20511;-69
2023/04/20 08:33:57;;;;;;;16.33;15.43;;;8.40;99.90;;;;;;5145952;27;20509;-69
2023/04/20 08:36:26;;;;;;;15.93;15.23;;;8.40;99.90;;;;;;5136882;27;20456;-69
2023/04/20 08:38:56;;;;;;;17.10;16.10;;;8.40;99.90;;;;;;5132469;27;20563;-69
2023/04/20 08:41:25;;;;;;;17.27;16.30;;;8.50;99.90;;;;;;5137635;27;20479;-69
2023/04/20 08:43:52;;;;;;;16.67;15.77;;;8.60;99.90;;;;;;5140379;27;20467;-69
2023/04/20 08:46:20;;;;;;;15.43;14.60;;;8.30;99.90;;;;;;5140188;27;20487;-69
2023/04/20 08:48:47;;;;;;;16.70;15.80;;;8.20;99.90;;;;;;5136488;27;20459;-69
2023/04/20 08:51:17;;;;;;;15.37;14.67;;;8.30;99.90;;;;;;5133509;27;20510;-69
2023/04/20 08:53:44;;;;;;;14.47;13.80;;;8.20;99.90;;;;;;5138810;27;20470;-69
2023/04/20 08:56:11;;;;;;;15.27;14.47;;;8.20;99.90;;;;;;5140280;27;20478;-69
2023/04/20 08:58:41;;;;;;;15.27;14.57;;;8.30;99.90;;;;;;5144117;27;20447;-69
2023/04/20 09:01:08;;;;;;;16.00;15.10;;;8.50;99.90;;;;;;5146141;27;21299;-69
2023/04/20 09:03:36;;;;;;;14.50;13.80;;;8.60;99.90;;;;;;5133209;27;20874;-70
2023/04/20 09:06:05;;;;;;;16.60;15.70;;;8.70;99.90;;;;;;5143264;27;20834;-69
2023/04/20 09:08:37;;;;;;;14.70;14.07;;;8.80;99.90;;;;;;5141045;27;20959;-69
2023/04/20 09:11:05;;;;;;;14.50;13.90;;;9.10;99.90;;;;;;5136334;27;20456;-69
2023/04/20 09:13:32;;;;;;;15.90;15.10;;;9.30;99.90;;;;;;5145051;27;20451;-69
2023/04/20 09:16:10;;;;;;;17.90;16.60;;;9.40;99.90;;;;;;5138033;27;20471;-69
2023/04/20 09:18:38;;;;;;;17.20;16.20;;;9.60;99.90;;;;;;5149584;27;20554;-69
2023/04/20 09:21:09;;;;;;;15.77;14.93;;;9.70;99.90;;;;;;5142201;27;20484;-69
2023/04/20 09:23:37;;;;;;;15.60;14.90;;;10.20;99.90;;;;;;5147499;27;21039;-69
2023/04/20 09:26:04;;;;;;;18.70;17.00;;;10.40;99.90;;;;;;5134147;27;20471;-69
2023/04/20 09:28:37;;;;;;;15.60;14.80;;;10.20;99.90;;;;;;5142586;27;20820;-69
2023/04/20 09:31:05;;;;;;;18.03;16.83;;;9.70;99.90;;;;;;5150271;27;20451;-69
2023/04/20 09:33:34;;;;;;;16.87;15.97;;;9.70;99.90;;;;;;5150240;27;20455;-69
2023/04/20 09:36:05;;;;;;;17.13;16.13;;;9.90;99.90;;;;;;5145832;27;20512;-69
2023/04/20 09:38:32;;;;;;;16.10;15.23;;;9.80;99.90;;;;;;5141885;27;20455;-69
2023/04/20 09:41:01;;;;;;;15.80;15.00;;;10.00;99.90;;;;;;5137668;27;20498;-69
2023/04/20 09:43:30;;;;;;;16.33;15.43;;;10.10;99.90;;;;;;5135735;27;20565;-69
2023/04/20 09:45:57;;;;;;;16.60;15.70;;;9.80;99.90;;;;;;5143195;27;20468;-69
2023/04/20 09:48:26;;;;;;;17.67;16.63;;;9.90;99.90;;;;;;5141487;27;20748;-69
2023/04/20 09:50:53;;;;;;;18.17;17.07;;;9.90;99.90;;;;;;5144437;27;20447;-69
2023/04/20 09:53:20;;;;;;;17.30;16.40;;;9.60;99.90;;;;;;5142754;27;20474;-69
2023/04/20 09:55:49;;;;;;;16.80;15.70;;;9.40;99.90;;;;;;5135303;27;20468;-70
2023/04/20 09:58:19;;;;;;;15.63;14.87;;;9.30;99.90;;;;;;5132726;27;20461;-69
2023/04/20 10:00:46;;;;;;;15.23;14.43;;;9.20;99.90;;;;;;5139728;27;20618;-69
2023/04/20 10:03:16;;;;;;;14.40;13.80;;;9.10;99.90;;;;;;5140987;27;20864;-69
2023/04/20 10:05:43;;;;;;;19.97;18.20;;;9.10;99.90;;;;;;5143516;27;20463;-69
2023/04/20 10:08:10;;;;;;;17.63;16.43;;;9.10;99.90;;;;;;5142756;27;20464;-68
2023/04/20 10:10:44;;;;;;;15.23;14.33;;;9.00;99.90;;;;;;5139741;27;20452;-67
2023/04/20 10:13:11;;;;;;;15.50;14.60;;;8.80;99.90;;;;;;5138663;27;20462;-66
2023/04/20 10:15:41;;;;;;;15.83;14.93;;;8.80;99.90;;;;;;5135892;27;21050;-67
2023/04/20 10:18:18;;;;;;;16.50;15.60;;;8.90;99.90;;;;;;5140858;27;20451;-67
2023/04/20 10:20:45;;;;;;;17.60;16.30;;;9.00;99.90;;;;;;5146654;27;20879;-67
2023/04/20 10:23:14;;;;;;;18.70;17.50;;;9.50;99.90;;;;;;5134611;27;20551;-67
2023/04/20 10:25:44;;;;;;;16.23;15.23;;;10.00;99.90;;;;;;5134874;27;20456;-67
2023/04/20 10:28:11;;;;;;;15.80;15.00;;;10.10;99.90;;;;;;5140416;27;20467;-67
2023/04/20 10:30:50;;;;;;;15.23;14.53;;;10.40;99.90;;;;;;5131728;27;21010;-68
2023/04/20 10:33:17;;;;;;;15.33;14.63;;;10.80;99.90;;;;;;5138501;27;20455;-67
2023/04/20 10:35:48;;;;;;;16.23;15.43;;;11.00;99.90;;;;;;5138627;27;20546;-67
2023/04/20 10:38:16;;;;;;;16.10;15.30;;;11.30;99.90;;;;;;5139442;27;20459;-67
2023/04/20 10:40:43;;;;;;;17.60;16.70;;;11.70;99.90;;;;;;5133735;27;20456;-69
2023/04/20 10:43:21;;;;;;;18.07;16.97;;;11.60;99.90;;;;;;5143327;27;21089;-67
2023/04/20 10:45:49;;;;;;;17.67;16.77;;;11.90;99.90;;;;;;5143037;27;20470;-67
2023/04/20 10:48:16;;;;;;;16.10;15.30;;;11.80;99.90;;;;;;5135924;27;20464;-68
2023/04/20 10:50:43;;;;;;;16.67;15.87;;;11.20;99.90;;;;;;5138724;27;21009;-68
2023/04/20 10:53:18;;;;;;;15.93;15.13;;;11.20;99.90;;;;;;5142449;27;20464;-68
2023/04/20 10:55:45;;;;;;;16.50;15.60;;;11.20;99.90;;;;;;5137747;27;20481;-69
2023/04/20 10:58:22;;;;;;;16.37;15.60;;;11.40;99.90;;;;;;5135472;27;20495;-68
2023/04/20 11:01:00;;;;;;;17.23;16.23;;;11.20;99.90;;;;;;5148619;27;20983;-68
2023/04/20 11:03:28;;;;;;;15.40;14.70;;;11.10;99.90;;;;;;5139248;27;20474;-68
2023/04/20 11:05:56;;;;;;;15.97;15.20;;;10.90;99.90;;;;;;5132170;27;20462;-67
2023/04/20 11:08:23;;;;;;;19.27;18.27;;;10.80;99.90;;;;;;5129396;27;20471;-68
2023/04/20 11:10:50;;;;;;;23.83;22.23;;;10.50;99.90;;;;;;5137896;27;20475;-67
2023/04/20 11:13:21;;;;;;;31.27;28.47;;;10.40;99.90;;;;;;5138986;27;20464;-68
2023/04/20 11:15:47;;;;;;;32.70;29.90;;;9.60;99.90;;;;;;5128133;27;20487;-68
2023/04/20 11:18:16;;;;;;;29.43;26.93;;;8.60;99.90;;;;;;5127703;27;20469;-69
2023/04/20 11:20:50;;;;;;;28.37;26.07;;;8.30;99.90;;;;;;5132666;27;20455;-68
2023/04/20 11:23:20;;;;;;;26.33;24.23;;;8.10;99.90;;;;;;5140932;27;20500;-68
2023/04/20 11:25:52;;;;;;;24.00;22.10;;;8.40;99.90;;;;;;5141106;27;20618;-68
2023/04/20 11:28:19;;;;;;;21.70;20.20;;;8.90;99.90;;;;;;5138648;27;20555;-68
2023/04/20 11:30:48;;;;;;;21.20;19.70;;;9.80;99.90;;;;;;5138254;27;20455;-68
2023/04/20 11:33:26;;;;;;;19.47;18.27;;;10.40;99.90;;;;;;5142822;27;20458;-68
2023/04/20 11:35:53;;;;;;;17.43;16.43;;;11.10;99.90;;;;;;5134940;27;20885;-68
2023/04/20 11:38:27;;;;;;;17.80;16.80;;;12.20;99.90;;;;;;5136664;27;20679;-68
2023/04/20 11:40:54;;;;;;;18.10;17.10;;;13.00;99.90;;;;;;5130084;27;21051;-68
2023/04/20 11:43:21;;;;;;;19.70;18.50;;;13.60;99.90;;;;;;5139433;27;20501;-68
2023/04/20 11:45:48;;;;;;;20.67;19.37;;;13.60;99.90;;;;;;5138295;27;20478;-69
2023/04/20 11:48:17;;;;;;;20.60;19.30;;;14.00;99.90;;;;;;5138154;27;20476;-69
2023/04/20 11:50:44;;;;;;;21.13;19.83;;;13.70;99.90;;;;;;5141723;27;20456;-68
2023/04/20 11:53:13;;;;;;;20.80;19.50;;;13.30;99.90;;;;;;5134603;27;20462;-68
2023/04/20 11:55:40;;;;;;;20.97;19.67;;;12.70;99.90;;;;;;5129544;27;20452;-68
2023/04/20 11:58:07;;;;;;;30.43;28.07;;;12.10;99.90;;;;;;5128433;27;20491;-68
2023/04/20 12:00:34;;;;;;;26.37;24.37;;;11.50;99.90;;;;;;5127950;27;20517;-68
2023/04/20 12:03:01;;;;;;;23.33;21.63;;;11.00;99.90;;;;;;5140774;27;20491;-68
2023/04/20 12:05:30;;;;;;;21.10;19.70;;;11.50;99.90;;;;;;5130445;27;20483;-68
2023/04/20 12:07:57;;;;;;;21.53;19.93;;;12.00;99.90;;;;;;5144744;27;20455;-69
2023/04/20 12:10:24;;;;;;;20.73;19.43;;;12.10;99.90;;;;;;5134503;27;20475;-68
2023/04/20 12:12:52;;;;;;;20.63;19.33;;;11.60;99.90;;;;;;5137112;27;20467;-68
2023/04/20 12:15:20;;;;;;;21.00;19.60;;;11.70;99.90;;;;;;5147608;27;20463;-68
2023/04/20 12:17:47;;;;;;;20.43;19.13;;;11.80;99.90;;;;;;5147791;27;20456;-68
2023/04/20 12:20:14;;;;;;;21.17;19.77;;;11.90;99.90;;;;;;5141643;27;20997;-69
2023/04/20 12:22:43;;;;;;;20.90;19.50;;;12.20;99.90;;;;;;5147255;27;20594;-68
2023/04/20 12:25:10;;;;;;;21.50;20.00;;;12.60;99.90;;;;;;5147468;27;20538;-69
2023/04/20 12:27:38;;;;;;;20.23;18.83;;;12.90;99.90;;;;;;5135930;27;20478;-68
2023/04/20 12:30:08;;;;;;;21.50;20.10;;;13.60;99.90;;;;;;5141418;27;20451;-68
2023/04/20 12:32:35;;;;;;;20.03;18.73;;;14.70;99.90;;;;;;5141519;27;20467;-69
2023/04/20 12:35:02;;;;;;;21.10;19.80;;;15.60;99.90;;;;;;5141428;27;20474;-68
2023/04/20 12:37:29;;;;;;;20.00;18.80;;;16.00;99.90;;;;;;5142859;27;20529;-68